5R8

De Quincy Industrial Airpark

De Quincy, Louisiana, USA
METAR K5R8 221515Z AUTO 24005KT 10SM VCTS SCT008 SCT017 BKN025 26/24 A3001 RMK AO2 LTG DSNT N S AND SW T02620241
Observed Flight Rules
Sep-22 @ 15:15 UTC (30 minutes ago) Marginal Visual Flight Rules
Wind Visibility Clouds Conditions
240° at 5 knots 10 miles
Temperatures Readings
Current 26°C / 79°F
Dewpoint 24°C / 75°F
Humidity 89%
Altimeter 30.01" Hg
Pressure 1016 hPa
Elevation 24
METAR K5R8 221515Z AUTO 24005KT 10SM VCTS SCT008 SCT017 BKN025 26/24 A3001 RMK AO2 LTG DSNT N S AND SW T02620241
Observed Flight Rules
Sep-22 @ 15:15 UTC
(30 minutes ago)
MVFR
Wind Visibility
240° at 5 knots 10 miles
Clouds
Conditions
Temperature Dewpoint
26°C / 79°F 24°C / 75°F
Humidity Altimeter Pressure
89% 30.01" Hg 1016 hPa